sensor_id;sensor_type;location;lat;lon;timestamp;temperature;humidity
2202;DHT22;1107;48.654;9.250;2024-01-07T00:00:48;4.90;99.90
2202;DHT22;1107;48.654;9.250;2024-01-07T00:03:13;4.90;99.90
2202;DHT22;1107;48.654;9.250;2024-01-07T00:05:43;4.90;99.90
2202;DHT22;1107;48.654;9.250;2024-01-07T00:08:09;4.90;99.90
2202;DHT22;1107;48.654;9.250;2024-01-07T00:10:36;4.90;99.90
2202;DHT22;1107;48.654;9.250;2024-01-07T00:13:03;4.90;99.90
2202;DHT22;1107;48.654;9.250;2024-01-07T00:15:30;4.90;99.90
2202;DHT22;1107;48.654;9.250;2024-01-07T00:17:57;4.90;99.90
2202;DHT22;1107;48.654;9.250;2024-01-07T00:20:23;4.90;99.90
2202;DHT22;1107;48.654;9.250;2024-01-07T00:22:52;4.90;99.90
2202;DHT22;1107;48.654;9.250;2024-01-07T00:25:18;4.90;99.90
2202;DHT22;1107;48.654;9.250;2024-01-07T00:27:45;4.90;99.90
2202;DHT22;1107;48.654;9.250;2024-01-07T00:30:12;5.00;99.90
2202;DHT22;1107;48.654;9.250;2024-01-07T00:32:39;4.90;99.90
2202;DHT22;1107;48.654;9.250;2024-01-07T00:35:06;4.90;99.90
2202;DHT22;1107;48.654;9.250;2024-01-07T00:37:32;4.90;99.90
2202;DHT22;1107;48.654;9.250;2024-01-07T00:40:01;4.90;99.90
2202;DHT22;1107;48.654;9.250;2024-01-07T00:42:28;4.90;99.90
2202;DHT22;1107;48.654;9.250;2024-01-07T00:44:55;4.90;99.90
2202;DHT22;1107;48.654;9.250;2024-01-07T00:47:22;4.90;99.90
2202;DHT22;1107;48.654;9.250;2024-01-07T00:49:48;5.00;99.90
2202;DHT22;1107;48.654;9.250;2024-01-07T00:52:15;5.00;99.90
2202;DHT22;1107;48.654;9.250;2024-01-07T00:54:42;5.00;99.90
2202;DHT22;1107;48.654;9.250;2024-01-07T00:57:11;5.00;99.90
2202;DHT22;1107;48.654;9.250;2024-01-07T00:59:38;5.10;99.90
2202;DHT22;1107;48.654;9.250;2024-01-07T01:02:05;5.10;99.90
2202;DHT22;1107;48.654;9.250;2024-01-07T01:04:31;5.10;99.90
2202;DHT22;1107;48.654;9.250;2024-01-07T01:06:58;5.10;99.90
2202;DHT22;1107;48.654;9.250;2024-01-07T01:09:27;5.20;99.90
2202;DHT22;1107;48.654;9.250;2024-01-07T01:11:54;5.20;99.90
2202;DHT22;1107;48.654;9.250;2024-01-07T01:14:25;5.10;99.90
2202;DHT22;1107;48.654;9.250;2024-01-07T01:16:52;5.20;99.90
2202;DHT22;1107;48.654;9.250;2024-01-07T01:19:18;5.20;99.90
2202;DHT22;1107;48.654;9.250;2024-01-07T01:21:46;5.20;99.90
2202;DHT22;1107;48.654;9.250;2024-01-07T01:24:12;5.10;99.90
2202;DHT22;1107;48.654;9.250;2024-01-07T01:26:39;5.20;99.90
2202;DHT22;1107;48.654;9.250;2024-01-07T01:29:06;5.20;99.90
2202;DHT22;1107;48.654;9.250;2024-01-07T01:31:34;5.20;99.90
2202;DHT22;1107;48.654;9.250;2024-01-07T01:34:00;5.20;99.90
2202;DHT22;1107;48.654;9.250;2024-01-07T01:36:27;5.20;99.90
2202;DHT22;1107;48.654;9.250;2024-01-07T01:38:54;5.20;99.90
2202;DHT22;1107;48.654;9.250;2024-01-07T01:41:21;5.20;99.90
2202;DHT22;1107;48.654;9.250;2024-01-07T01:43:47;5.20;99.90
2202;DHT22;1107;48.654;9.250;2024-01-07T01:46:14;5.20;99.90
2202;DHT22;1107;48.654;9.250;2024-01-07T01:48:42;5.20;99.90
2202;DHT22;1107;48.654;9.250;2024-01-07T01:51:09;5.10;99.90
2202;DHT22;1107;48.654;9.250;2024-01-07T01:53:36;5.10;99.90
2202;DHT22;1107;48.654;9.250;2024-01-07T01:56:04;5.10;99.90
2202;DHT22;1107;48.654;9.250;2024-01-07T01:58:32;5.10;99.90
2202;DHT22;1107;48.654;9.250;2024-01-07T02:00:59;5.10;99.90
2202;DHT22;1107;48.654;9.250;2024-01-07T02:03:25;5.10;99.90
2202;DHT22;1107;48.654;9.250;2024-01-07T02:05:53;5.10;99.90
2202;DHT22;1107;48.654;9.250;2024-01-07T02:08:21;5.10;99.90
2202;DHT22;1107;48.654;9.250;2024-01-07T02:10:48;5.10;99.90
2202;DHT22;1107;48.654;9.250;2024-01-07T02:13:14;5.00;99.90
2202;DHT22;1107;48.654;9.250;2024-01-07T02:15:41;5.00;99.90
2202;DHT22;1107;48.654;9.250;2024-01-07T02:18:08;5.00;99.90
2202;DHT22;1107;48.654;9.250;2024-01-07T02:20:35;5.00;99.90
2202;DHT22;1107;48.654;9.250;2024-01-07T02:23:03;5.00;99.90
2202;DHT22;1107;48.654;9.250;2024-01-07T02:25:35;5.00;99.90
2202;DHT22;1107;48.654;9.250;2024-01-07T02:28:02;5.00;99.90
2202;DHT22;1107;48.654;9.250;2024-01-07T02:30:29;5.00;99.90
2202;DHT22;1107;48.654;9.250;2024-01-07T02:32:55;5.00;99.90
2202;DHT22;1107;48.654;9.250;2024-01-07T02:35:22;5.00;99.90
2202;DHT22;1107;48.654;9.250;2024-01-07T02:37:49;4.90;99.90
2202;DHT22;1107;48.654;9.250;2024-01-07T02:40:15;4.90;99.90
2202;DHT22;1107;48.654;9.250;2024-01-07T02:42:43;4.90;99.90
2202;DHT22;1107;48.654;9.250;2024-01-07T02:45:10;4.90;99.90
2202;DHT22;1107;48.654;9.250;2024-01-07T02:47:37;4.90;99.90
2202;DHT22;1107;48.654;9.250;2024-01-07T02:50:04;5.00;99.90
2202;DHT22;1107;48.654;9.250;2024-01-07T02:52:31;4.90;99.90
2202;DHT22;1107;48.654;9.250;2024-01-07T02:54:58;4.90;99.90
2202;DHT22;1107;48.654;9.250;2024-01-07T02:57:26;4.90;99.90
2202;DHT22;1107;48.654;9.250;2024-01-07T02:59:54;4.90;99.90
2202;DHT22;1107;48.654;9.250;2024-01-07T03:02:21;4.90;99.90
2202;DHT22;1107;48.654;9.250;2024-01-07T03:04:48;4.90;99.90
2202;DHT22;1107;48.654;9.250;2024-01-07T03:07:15;4.90;99.90
2202;DHT22;1107;48.654;9.250;2024-01-07T03:09:41;4.90;99.90
2202;DHT22;1107;48.654;9.250;2024-01-07T03:12:08;4.90;99.90
2202;DHT22;1107;48.654;9.250;2024-01-07T03:14:35;4.80;99.90
2202;DHT22;1107;48.654;9.250;2024-01-07T03:17:03;4.80;99.90
2202;DHT22;1107;48.654;9.250;2024-01-07T03:19:30;4.90;99.90
2202;DHT22;1107;48.654;9.250;2024-01-07T03:21:56;4.80;99.90
2202;DHT22;1107;48.654;9.250;2024-01-07T03:24:23;4.80;99.90
2202;DHT22;1107;48.654;9.250;2024-01-07T03:26:50;4.80;99.90
2202;DHT22;1107;48.654;9.250;2024-01-07T03:29:17;4.90;99.90
2202;DHT22;1107;48.654;9.250;2024-01-07T03:31:43;4.80;99.90
2202;DHT22;1107;48.654;9.250;2024-01-07T03:34:11;4.80;99.90
2202;DHT22;1107;48.654;9.250;2024-01-07T03:36:38;4.80;99.90
2202;DHT22;1107;48.654;9.250;2024-01-07T03:39:05;4.80;99.90
2202;DHT22;1107;48.654;9.250;2024-01-07T03:41:32;4.80;99.90
2202;DHT22;1107;48.654;9.250;2024-01-07T03:43:59;4.80;99.90
2202;DHT22;1107;48.654;9.250;2024-01-07T03:46:25;4.80;99.90
2202;DHT22;1107;48.654;9.250;2024-01-07T03:48:52;4.80;99.90
2202;DHT22;1107;48.654;9.250;2024-01-07T03:51:20;4.80;99.90
2202;DHT22;1107;48.654;9.250;2024-01-07T03:53:47;4.80;99.90
2202;DHT22;1107;48.654;9.250;2024-01-07T03:56:14;4.80;99.90
2202;DHT22;1107;48.654;9.250;2024-01-07T03:58:40;4.80;99.90
2202;DHT22;1107;48.654;9.250;2024-01-07T04:01:07;4.70;99.90
2202;DHT22;1107;48.654;9.250;2024-01-07T04:03:34;4.70;99.90
2202;DHT22;1107;48.654;9.250;2024-01-07T04:06:00;4.70;99.90
2202;DHT22;1107;48.654;9.250;2024-01-07T04:08:28;4.70;99.90
2202;DHT22;1107;48.654;9.250;2024-01-07T04:10:55;4.70;99.90
2202;DHT22;1107;48.654;9.250;2024-01-07T04:13:22;4.60;99.90
2202;DHT22;1107;48.654;9.250;2024-01-07T04:15:49;4.60;99.90
2202;DHT22;1107;48.654;9.250;2024-01-07T04:18:15;4.60;99.90
2202;DHT22;1107;48.654;9.250;2024-01-07T04:20:42;4.60;99.90
2202;DHT22;1107;48.654;9.250;2024-01-07T04:23:09;4.50;99.90
2202;DHT22;1107;48.654;9.250;2024-01-07T04:25:37;4.50;99.90
2202;DHT22;1107;48.654;9.250;2024-01-07T04:28:06;4.50;99.90
2202;DHT22;1107;48.654;9.250;2024-01-07T04:30:33;4.50;99.90
2202;DHT22;1107;48.654;9.250;2024-01-07T04:33:00;4.50;99.90
2202;DHT22;1107;48.654;9.250;2024-01-07T04:35:26;4.50;99.90
2202;DHT22;1107;48.654;9.250;2024-01-07T04:37:53;4.50;99.90
2202;DHT22;1107;48.654;9.250;2024-01-07T04:40:20;4.50;99.90
2202;DHT22;1107;48.654;9.250;2024-01-07T04:42:48;4.50;99.90
2202;DHT22;1107;48.654;9.250;2024-01-07T04:45:14;4.50;99.90
2202;DHT22;1107;48.654;9.250;2024-01-07T04:47:41;4.50;99.90
2202;DHT22;1107;48.654;9.250;2024-01-07T04:50:08;4.50;99.90
2202;DHT22;1107;48.654;9.250;2024-01-07T04:52:35;4.60;99.90
2202;DHT22;1107;48.654;9.250;2024-01-07T04:55:01;4.60;99.90
2202;DHT22;1107;48.654;9.250;2024-01-07T04:57:28;4.60;99.90
2202;DHT22;1107;48.654;9.250;2024-01-07T04:59:56;4.60;99.90
2202;DHT22;1107;48.654;9.250;2024-01-07T05:02:23;4.60;99.90
2202;DHT22;1107;48.654;9.250;2024-01-07T05:04:50;4.60;99.90
2202;DHT22;1107;48.654;9.250;2024-01-07T05:07:16;4.60;99.90
2202;DHT22;1107;48.654;9.250;2024-01-07T05:09:43;4.60;99.90
2202;DHT22;1107;48.654;9.250;2024-01-07T05:12:10;4.50;99.90
2202;DHT22;1107;48.654;9.250;2024-01-07T05:14:36;4.50;99.90
2202;DHT22;1107;48.654;9.250;2024-01-07T05:17:06;4.50;99.90
2202;DHT22;1107;48.654;9.250;2024-01-07T05:19:33;4.50;99.90
2202;DHT22;1107;48.654;9.250;2024-01-07T05:21:59;4.40;99.90
2202;DHT22;1107;48.654;9.250;2024-01-07T05:24:26;4.40;99.90
2202;DHT22;1107;48.654;9.250;2024-01-07T05:26:53;4.40;99.90
2202;DHT22;1107;48.654;9.250;2024-01-07T05:29:20;4.40;99.90
2202;DHT22;1107;48.654;9.250;2024-01-07T05:31:47;4.40;99.90
2202;DHT22;1107;48.654;9.250;2024-01-07T05:34:15;4.40;99.90
2202;DHT22;1107;48.654;9.250;2024-01-07T05:36:42;4.40;99.90
2202;DHT22;1107;48.654;9.250;2024-01-07T05:39:09;4.40;99.90
2202;DHT22;1107;48.654;9.250;2024-01-07T05:41:36;4.40;99.90
2202;DHT22;1107;48.654;9.250;2024-01-07T05:44:03;4.40;99.90
2202;DHT22;1107;48.654;9.250;2024-01-07T05:46:30;4.40;99.90
2202;DHT22;1107;48.654;9.250;2024-01-07T05:48:56;4.40;99.90
2202;DHT22;1107;48.654;9.250;2024-01-07T05:51:24;4.40;99.90
2202;DHT22;1107;48.654;9.250;2024-01-07T05:53:51;4.50;99.90
2202;DHT22;1107;48.654;9.250;2024-01-07T05:56:18;4.50;99.90
2202;DHT22;1107;48.654;9.250;2024-01-07T05:58:44;4.40;99.90
2202;DHT22;1107;48.654;9.250;2024-01-07T06:01:11;4.40;99.90
2202;DHT22;1107;48.654;9.250;2024-01-07T06:03:38;4.40;99.90
2202;DHT22;1107;48.654;9.250;2024-01-07T06:06:05;4.50;99.90
2202;DHT22;1107;48.654;9.250;2024-01-07T06:08:33;4.50;99.90
2202;DHT22;1107;48.654;9.250;2024-01-07T06:10:59;4.50;99.90
2202;DHT22;1107;48.654;9.250;2024-01-07T06:13:26;4.50;99.90
2202;DHT22;1107;48.654;9.250;2024-01-07T06:15:53;4.50;99.90
2202;DHT22;1107;48.654;9.250;2024-01-07T06:18:19;4.50;99.90
2202;DHT22;1107;48.654;9.250;2024-01-07T06:20:46;4.50;99.90
2202;DHT22;1107;48.654;9.250;2024-01-07T06:23:13;4.40;99.90
2202;DHT22;1107;48.654;9.250;2024-01-07T06:25:41;4.40;99.90
2202;DHT22;1107;48.654;9.250;2024-01-07T06:28:08;4.40;99.90
2202;DHT22;1107;48.654;9.250;2024-01-07T06:30:35;4.40;99.90
2202;DHT22;1107;48.654;9.250;2024-01-07T06:33:02;4.40;99.90
2202;DHT22;1107;48.654;9.250;2024-01-07T06:35:29;4.40;99.90
2202;DHT22;1107;48.654;9.250;2024-01-07T06:37:56;4.40;99.90
2202;DHT22;1107;48.654;9.250;2024-01-07T06:40:22;4.40;99.90
2202;DHT22;1107;48.654;9.250;2024-01-07T06:42:51;4.40;99.90
2202;DHT22;1107;48.654;9.250;2024-01-07T06:45:18;4.40;99.90
2202;DHT22;1107;48.654;9.250;2024-01-07T06:47:44;4.40;99.90
2202;DHT22;1107;48.654;9.250;2024-01-07T06:50:11;4.40;99.90
2202;DHT22;1107;48.654;9.250;2024-01-07T06:52:38;4.40;99.90
2202;DHT22;1107;48.654;9.250;2024-01-07T06:55:05;4.40;99.90
2202;DHT22;1107;48.654;9.250;2024-01-07T06:57:32;4.40;99.90
2202;DHT22;1107;48.654;9.250;2024-01-07T07:00:00;4.40;99.90
2202;DHT22;1107;48.654;9.250;2024-01-07T07:02:28;4.40;99.90
2202;DHT22;1107;48.654;9.250;2024-01-07T07:04:55;4.40;99.90
2202;DHT22;1107;48.654;9.250;2024-01-07T07:07:21;4.40;99.90
2202;DHT22;1107;48.654;9.250;2024-01-07T07:09:48;4.40;99.90
2202;DHT22;1107;48.654;9.250;2024-01-07T07:12:15;4.40;99.90
2202;DHT22;1107;48.654;9.250;2024-01-07T07:14:42;4.40;99.90
2202;DHT22;1107;48.654;9.250;2024-01-07T07:17:10;4.30;99.90
2202;DHT22;1107;48.654;9.250;2024-01-07T07:19:37;4.30;99.90
2202;DHT22;1107;48.654;9.250;2024-01-07T07:22:03;4.30;99.90
2202;DHT22;1107;48.654;9.250;2024-01-07T07:24:30;4.30;99.90
2202;DHT22;1107;48.654;9.250;2024-01-07T07:26:57;4.30;99.90
2202;DHT22;1107;48.654;9.250;2024-01-07T07:29:24;4.30;99.90
2202;DHT22;1107;48.654;9.250;2024-01-07T07:31:51;4.30;99.90
2202;DHT22;1107;48.654;9.250;2024-01-07T07:34:19;4.30;99.90
2202;DHT22;1107;48.654;9.250;2024-01-07T07:36:46;4.30;99.90
2202;DHT22;1107;48.654;9.250;2024-01-07T07:39:12;4.30;99.90
2202;DHT22;1107;48.654;9.250;2024-01-07T07:41:40;4.30;99.90
2202;DHT22;1107;48.654;9.250;2024-01-07T07:44:06;4.30;99.90
2202;DHT22;1107;48.654;9.250;2024-01-07T07:46:33;4.30;99.90
2202;DHT22;1107;48.654;9.250;2024-01-07T07:49:00;4.30;99.90
2202;DHT22;1107;48.654;9.250;2024-01-07T07:51:29;4.30;99.90
2202;DHT22;1107;48.654;9.250;2024-01-07T07:53:55;4.30;99.90
2202;DHT22;1107;48.654;9.250;2024-01-07T07:56:22;4.30;99.90
2202;DHT22;1107;48.654;9.250;2024-01-07T07:58:49;4.30;99.90
2202;DHT22;1107;48.654;9.250;2024-01-07T08:01:16;4.30;99.90
2202;DHT22;1107;48.654;9.250;2024-01-07T08:03:43;4.30;99.90
2202;DHT22;1107;48.654;9.250;2024-01-07T08:06:10;4.20;99.90
2202;DHT22;1107;48.654;9.250;2024-01-07T08:08:37;4.30;99.90
2202;DHT22;1107;48.654;9.250;2024-01-07T08:11:04;4.20;99.90
2202;DHT22;1107;48.654;9.250;2024-01-07T08:13:34;4.30;99.90
2202;DHT22;1107;48.654;9.250;2024-01-07T08:16:01;4.20;99.90
2202;DHT22;1107;48.654;9.250;2024-01-07T08:18:28;4.20;99.90
2202;DHT22;1107;48.654;9.250;2024-01-07T08:20:55;4.20;99.90
2202;DHT22;1107;48.654;9.250;2024-01-07T08:23:21;4.10;99.90
2202;DHT22;1107;48.654;9.250;2024-01-07T08:25:50;4.20;99.90
2202;DHT22;1107;48.654;9.250;2024-01-07T08:28:17;4.20;99.90
2202;DHT22;1107;48.654;9.250;2024-01-07T08:30:43;4.20;99.90
2202;DHT22;1107;48.654;9.250;2024-01-07T08:33:10;4.20;99.90
2202;DHT22;1107;48.654;9.250;2024-01-07T08:35:37;4.10;99.90
2202;DHT22;1107;48.654;9.250;2024-01-07T08:38:06;4.10;99.90
2202;DHT22;1107;48.654;9.250;2024-01-07T08:40:33;4.20;99.90
2202;DHT22;1107;48.654;9.250;2024-01-07T08:43:01;4.20;99.90
2202;DHT22;1107;48.654;9.250;2024-01-07T08:45:28;4.10;99.90
2202;DHT22;1107;48.654;9.250;2024-01-07T08:47:54;4.10;99.90
2202;DHT22;1107;48.654;9.250;2024-01-07T08:50:21;4.10;99.90
2202;DHT22;1107;48.654;9.250;2024-01-07T08:52:48;4.10;99.90
2202;DHT22;1107;48.654;9.250;2024-01-07T08:55:15;4.10;99.90
2202;DHT22;1107;48.654;9.250;2024-01-07T08:57:41;4.10;99.90
2202;DHT22;1107;48.654;9.250;2024-01-07T09:00:10;4.10;99.90
2202;DHT22;1107;48.654;9.250;2024-01-07T09:02:37;4.20;99.90
2202;DHT22;1107;48.654;9.250;2024-01-07T09:05:05;4.30;99.90
2202;DHT22;1107;48.654;9.250;2024-01-07T09:07:31;4.20;99.90
2202;DHT22;1107;48.654;9.250;2024-01-07T09:09:58;4.20;99.90
2202;DHT22;1107;48.654;9.250;2024-01-07T09:12:26;4.10;99.90
2202;DHT22;1107;48.654;9.250;2024-01-07T09:14:53;4.00;99.90
2202;DHT22;1107;48.654;9.250;2024-01-07T09:17:21;4.00;99.90
2202;DHT22;1107;48.654;9.250;2024-01-07T09:19:48;4.00;99.90
2202;DHT22;1107;48.654;9.250;2024-01-07T09:22:14;4.00;99.90
2202;DHT22;1107;48.654;9.250;2024-01-07T09:24:41;3.90;99.90
2202;DHT22;1107;48.654;9.250;2024-01-07T09:27:08;3.80;99.90
2202;DHT22;1107;48.654;9.250;2024-01-07T09:29:35;3.80;99.90
2202;DHT22;1107;48.654;9.250;2024-01-07T09:32:01;3.90;99.90
2202;DHT22;1107;48.654;9.250;2024-01-07T09:34:29;3.90;99.90
2202;DHT22;1107;48.654;9.250;2024-01-07T09:36:56;3.90;99.90
2202;DHT22;1107;48.654;9.250;2024-01-07T09:39:23;3.90;99.90
2202;DHT22;1107;48.654;9.250;2024-01-07T09:41:51;3.90;99.90
2202;DHT22;1107;48.654;9.250;2024-01-07T09:44:17;3.90;99.90
2202;DHT22;1107;48.654;9.250;2024-01-07T09:46:44;3.80;99.90
2202;DHT22;1107;48.654;9.250;2024-01-07T09:49:14;3.90;99.90
2202;DHT22;1107;48.654;9.250;2024-01-07T09:51:43;3.90;99.90
2202;DHT22;1107;48.654;9.250;2024-01-07T09:54:11;3.90;99.90
2202;DHT22;1107;48.654;9.250;2024-01-07T09:56:42;4.00;99.90
2202;DHT22;1107;48.654;9.250;2024-01-07T09:59:09;3.70;99.90
2202;DHT22;1107;48.654;9.250;2024-01-07T10:01:36;3.70;99.90
2202;DHT22;1107;48.654;9.250;2024-01-07T10:04:03;3.70;99.90
2202;DHT22;1107;48.654;9.250;2024-01-07T10:06:31;3.60;99.90
2202;DHT22;1107;48.654;9.250;2024-01-07T10:08:59;3.50;99.90
2202;DHT22;1107;48.654;9.250;2024-01-07T10:11:26;3.50;99.90
2202;DHT22;1107;48.654;9.250;2024-01-07T10:13:53;3.40;99.90
2202;DHT22;1107;48.654;9.250;2024-01-07T10:16:20;3.40;99.90
2202;DHT22;1107;48.654;9.250;2024-01-07T10:18:46;3.50;99.90
2202;DHT22;1107;48.654;9.250;2024-01-07T10:21:13;3.50;99.90
2202;DHT22;1107;48.654;9.250;2024-01-07T10:23:40;3.40;99.90
2202;DHT22;1107;48.654;9.250;2024-01-07T10:26:08;3.40;99.90
2202;DHT22;1107;48.654;9.250;2024-01-07T10:28:36;3.40;99.90
2202;DHT22;1107;48.654;9.250;2024-01-07T10:31:03;3.30;99.90
2202;DHT22;1107;48.654;9.250;2024-01-07T10:33:30;3.30;99.90
2202;DHT22;1107;48.654;9.250;2024-01-07T10:36:00;3.30;99.90
2202;DHT22;1107;48.654;9.250;2024-01-07T10:38:29;3.40;99.90
2202;DHT22;1107;48.654;9.250;2024-01-07T10:40:56;3.40;99.90
2202;DHT22;1107;48.654;9.250;2024-01-07T10:43:26;3.40;99.90
2202;DHT22;1107;48.654;9.250;2024-01-07T10:45:55;3.40;99.90
2202;DHT22;1107;48.654;9.250;2024-01-07T10:48:23;3.40;99.90
2202;DHT22;1107;48.654;9.250;2024-01-07T10:50:51;3.40;99.90
2202;DHT22;1107;48.654;9.250;2024-01-07T10:53:20;3.40;99.90
2202;DHT22;1107;48.654;9.250;2024-01-07T10:55:48;3.40;99.90
2202;DHT22;1107;48.654;9.250;2024-01-07T10:58:19;3.40;99.90
2202;DHT22;1107;48.654;9.250;2024-01-07T11:00:48;3.40;99.90
2202;DHT22;1107;48.654;9.250;2024-01-07T11:03:17;3.30;99.90
2202;DHT22;1107;48.654;9.250;2024-01-07T11:05:50;3.40;99.90
2202;DHT22;1107;48.654;9.250;2024-01-07T11:08:19;3.30;99.90
2202;DHT22;1107;48.654;9.250;2024-01-07T11:10:48;3.30;99.90
2202;DHT22;1107;48.654;9.250;2024-01-07T11:13:31;3.30;99.90
2202;DHT22;1107;48.654;9.250;2024-01-07T11:15:59;3.40;99.90
2202;DHT22;1107;48.654;9.250;2024-01-07T11:18:26;3.20;99.90
2202;DHT22;1107;48.654;9.250;2024-01-07T11:20:57;3.20;99.90
2202;DHT22;1107;48.654;9.250;2024-01-07T11:23:28;3.20;99.90
2202;DHT22;1107;48.654;9.250;2024-01-07T11:25:56;3.20;99.90
2202;DHT22;1107;48.654;9.250;2024-01-07T11:31:06;3.10;99.90
2202;DHT22;1107;48.654;9.250;2024-01-07T11:33:34;3.10;99.90
2202;DHT22;1107;48.654;9.250;2024-01-07T11:36:02;3.10;99.90
2202;DHT22;1107;48.654;9.250;2024-01-07T11:38:30;3.10;99.90
2202;DHT22;1107;48.654;9.250;2024-01-07T11:40:57;3.20;99.90
2202;DHT22;1107;48.654;9.250;2024-01-07T11:43:24;3.20;99.90
2202;DHT22;1107;48.654;9.250;2024-01-07T11:45:51;3.20;99.90
2202;DHT22;1107;48.654;9.250;2024-01-07T11:48:21;3.10;99.90
2202;DHT22;1107;48.654;9.250;2024-01-07T11:50:47;3.20;99.90
2202;DHT22;1107;48.654;9.250;2024-01-07T11:53:14;3.10;99.90
2202;DHT22;1107;48.654;9.250;2024-01-07T11:55:41;3.20;99.90
2202;DHT22;1107;48.654;9.250;2024-01-07T11:58:08;3.10;99.90
2202;DHT22;1107;48.654;9.250;2024-01-07T12:00:35;3.20;99.90
2202;DHT22;1107;48.654;9.250;2024-01-07T12:03:02;3.20;99.90
2202;DHT22;1107;48.654;9.250;2024-01-07T12:05:31;3.20;99.90
2202;DHT22;1107;48.654;9.250;2024-01-07T12:07:59;3.20;99.90
2202;DHT22;1107;48.654;9.250;2024-01-07T12:10:26;3.30;99.90
2202;DHT22;1107;48.654;9.250;2024-01-07T12:12:54;3.20;99.90
2202;DHT22;1107;48.654;9.250;2024-01-07T12:15:21;3.30;99.90
2202;DHT22;1107;48.654;9.250;2024-01-07T12:17:54;3.20;99.90
2202;DHT22;1107;48.654;9.250;2024-01-07T12:20:21;3.20;99.90
2202;DHT22;1107;48.654;9.250;2024-01-07T12:22:49;3.20;99.90
2202;DHT22;1107;48.654;9.250;2024-01-07T12:25:27;3.20;99.90
2202;DHT22;1107;48.654;9.250;2024-01-07T12:27:54;3.10;99.90
2202;DHT22;1107;48.654;9.250;2024-01-07T12:30:21;3.10;99.90
2202;DHT22;1107;48.654;9.250;2024-01-07T12:32:51;3.10;99.90
2202;DHT22;1107;48.654;9.250;2024-01-07T12:35:18;3.20;99.90
2202;DHT22;1107;48.654;9.250;2024-01-07T12:37:44;3.00;99.90
2202;DHT22;1107;48.654;9.250;2024-01-07T12:40:13;2.90;99.90
2202;DHT22;1107;48.654;9.250;2024-01-07T12:42:39;2.90;99.90
2202;DHT22;1107;48.654;9.250;2024-01-07T12:45:10;2.80;99.90
2202;DHT22;1107;48.654;9.250;2024-01-07T12:47:37;2.80;99.90
2202;DHT22;1107;48.654;9.250;2024-01-07T12:50:04;2.80;99.90
2202;DHT22;1107;48.654;9.250;2024-01-07T12:52:30;2.80;99.90
2202;DHT22;1107;48.654;9.250;2024-01-07T12:54:57;2.80;99.90
2202;DHT22;1107;48.654;9.250;2024-01-07T12:57:25;2.80;99.90
2202;DHT22;1107;48.654;9.250;2024-01-07T12:59:52;2.80;99.90
2202;DHT22;1107;48.654;9.250;2024-01-07T13:02:19;2.80;99.90
2202;DHT22;1107;48.654;9.250;2024-01-07T13:04:46;2.80;99.90
2202;DHT22;1107;48.654;9.250;2024-01-07T13:07:13;2.70;99.90
2202;DHT22;1107;48.654;9.250;2024-01-07T13:09:39;2.70;99.90
2202;DHT22;1107;48.654;9.250;2024-01-07T13:12:06;2.60;99.90
2202;DHT22;1107;48.654;9.250;2024-01-07T13:14:34;2.60;99.90
2202;DHT22;1107;48.654;9.250;2024-01-07T13:17:01;2.60;99.90
2202;DHT22;1107;48.654;9.250;2024-01-07T13:19:28;2.70;99.90
2202;DHT22;1107;48.654;9.250;2024-01-07T13:21:55;2.60;99.90
2202;DHT22;1107;48.654;9.250;2024-01-07T13:24:23;2.60;99.90
2202;DHT22;1107;48.654;9.250;2024-01-07T13:26:50;2.50;99.90
2202;DHT22;1107;48.654;9.250;2024-01-07T13:29:16;2.50;99.90
2202;DHT22;1107;48.654;9.250;2024-01-07T13:31:45;2.50;99.90
2202;DHT22;1107;48.654;9.250;2024-01-07T13:34:11;2.50;99.90
2202;DHT22;1107;48.654;9.250;2024-01-07T13:36:39;2.60;99.90
2202;DHT22;1107;48.654;9.250;2024-01-07T13:39:06;2.50;99.90
2202;DHT22;1107;48.654;9.250;2024-01-07T13:41:33;2.50;99.90
2202;DHT22;1107;48.654;9.250;2024-01-07T13:44:00;2.50;99.90
2202;DHT22;1107;48.654;9.250;2024-01-07T13:46:28;2.50;99.90
2202;DHT22;1107;48.654;9.250;2024-01-07T13:48:56;2.40;99.90
2202;DHT22;1107;48.654;9.250;2024-01-07T13:51:23;2.40;99.90
2202;DHT22;1107;48.654;9.250;2024-01-07T13:53:49;2.40;99.90
2202;DHT22;1107;48.654;9.250;2024-01-07T13:56:16;2.30;99.90
2202;DHT22;1107;48.654;9.250;2024-01-07T13:58:43;2.20;99.90
2202;DHT22;1107;48.654;9.250;2024-01-07T14:01:14;2.10;99.90
2202;DHT22;1107;48.654;9.250;2024-01-07T14:03:41;2.20;99.90
2202;DHT22;1107;48.654;9.250;2024-01-07T14:06:09;2.10;99.90
2202;DHT22;1107;48.654;9.250;2024-01-07T14:08:37;2.00;99.90
2202;DHT22;1107;48.654;9.250;2024-01-07T14:11:03;2.00;99.90
2202;DHT22;1107;48.654;9.250;2024-01-07T14:13:32;2.00;99.90
2202;DHT22;1107;48.654;9.250;2024-01-07T14:15:59;1.90;99.90
2202;DHT22;1107;48.654;9.250;2024-01-07T14:18:26;1.90;99.90
2202;DHT22;1107;48.654;9.250;2024-01-07T14:20:53;1.80;99.90
2202;DHT22;1107;48.654;9.250;2024-01-07T14:23:21;1.70;99.90
2202;DHT22;1107;48.654;9.250;2024-01-07T14:25:48;1.60;99.90
2202;DHT22;1107;48.654;9.250;2024-01-07T14:28:15;1.60;99.90
2202;DHT22;1107;48.654;9.250;2024-01-07T14:30:41;1.60;99.90
2202;DHT22;1107;48.654;9.250;2024-01-07T14:33:08;1.60;99.90
2202;DHT22;1107;48.654;9.250;2024-01-07T14:35:35;1.60;99.90
2202;DHT22;1107;48.654;9.250;2024-01-07T14:38:02;1.60;99.90
2202;DHT22;1107;48.654;9.250;2024-01-07T14:40:30;1.60;99.90
2202;DHT22;1107;48.654;9.250;2024-01-07T14:42:57;1.70;99.90
2202;DHT22;1107;48.654;9.250;2024-01-07T14:45:24;1.60;99.90
2202;DHT22;1107;48.654;9.250;2024-01-07T14:47:51;1.60;99.90
2202;DHT22;1107;48.654;9.250;2024-01-07T14:50:18;1.50;99.90
2202;DHT22;1107;48.654;9.250;2024-01-07T14:52:45;1.60;99.90
2202;DHT22;1107;48.654;9.250;2024-01-07T14:55:12;1.50;99.90
2202;DHT22;1107;48.654;9.250;2024-01-07T14:57:41;1.50;99.90
2202;DHT22;1107;48.654;9.250;2024-01-07T15:00:08;1.60;99.90
2202;DHT22;1107;48.654;9.250;2024-01-07T15:02:34;1.40;99.90
2202;DHT22;1107;48.654;9.250;2024-01-07T15:05:01;1.40;99.90
2202;DHT22;1107;48.654;9.250;2024-01-07T15:07:29;1.40;99.90
2202;DHT22;1107;48.654;9.250;2024-01-07T15:09:55;1.30;99.90
2202;DHT22;1107;48.654;9.250;2024-01-07T15:12:25;1.40;99.90
2202;DHT22;1107;48.654;9.250;2024-01-07T15:15:02;1.30;99.90
2202;DHT22;1107;48.654;9.250;2024-01-07T15:17:31;1.30;99.90
2202;DHT22;1107;48.654;9.250;2024-01-07T15:19:57;1.30;99.90
2202;DHT22;1107;48.654;9.250;2024-01-07T15:22:24;1.40;99.90
2202;DHT22;1107;48.654;9.250;2024-01-07T15:24:51;1.20;99.90
2202;DHT22;1107;48.654;9.250;2024-01-07T15:27:18;1.10;99.90
2202;DHT22;1107;48.654;9.250;2024-01-07T15:29:44;1.10;99.90
2202;DHT22;1107;48.654;9.250;2024-01-07T15:32:13;0.90;99.90
2202;DHT22;1107;48.654;9.250;2024-01-07T15:34:41;1.00;99.90
2202;DHT22;1107;48.654;9.250;2024-01-07T15:37:07;1.00;99.90
2202;DHT22;1107;48.654;9.250;2024-01-07T15:39:35;1.10;99.90
2202;DHT22;1107;48.654;9.250;2024-01-07T15:42:02;1.00;99.90
2202;DHT22;1107;48.654;9.250;2024-01-07T15:44:28;1.00;99.90
2202;DHT22;1107;48.654;9.250;2024-01-07T15:46:56;0.90;99.90
2202;DHT22;1107;48.654;9.250;2024-01-07T15:49:24;0.90;99.90
2202;DHT22;1107;48.654;9.250;2024-01-07T15:51:51;0.90;99.90
2202;DHT22;1107;48.654;9.250;2024-01-07T15:54:18;0.90;99.90
2202;DHT22;1107;48.654;9.250;2024-01-07T15:56:44;0.90;99.90
2202;DHT22;1107;48.654;9.250;2024-01-07T15:59:12;0.90;99.90
2202;DHT22;1107;48.654;9.250;2024-01-07T16:01:45;0.90;99.90
2202;DHT22;1107;48.654;9.250;2024-01-07T16:04:12;0.90;99.90
2202;DHT22;1107;48.654;9.250;2024-01-07T16:06:41;0.90;99.90
2202;DHT22;1107;48.654;9.250;2024-01-07T16:09:08;1.10;99.90
2202;DHT22;1107;48.654;9.250;2024-01-07T16:11:35;1.00;99.90
2202;DHT22;1107;48.654;9.250;2024-01-07T16:14:01;1.00;99.90
2202;DHT22;1107;48.654;9.250;2024-01-07T16:16:28;1.00;99.90
2202;DHT22;1107;48.654;9.250;2024-01-07T16:18:55;1.00;99.90